sensor_id;sensor_type;location;lat;lon;timestamp;P1;durP1;ratioP1;P2;durP2;ratioP2
21814;SDS011;11069;48.988;8.450;2023-05-10T00:00:59;3.35;;;1.45;;
21814;SDS011;11069;48.988;8.450;2023-05-10T00:03:25;1.50;;;1.40;;
21814;SDS011;11069;48.988;8.450;2023-05-10T00:05:51;1.55;;;1.45;;
21814;SDS011;11069;48.988;8.450;2023-05-10T00:08:17;1.70;;;1.40;;
21814;SDS011;11069;48.988;8.450;2023-05-10T00:10:43;2.30;;;2.10;;
21814;SDS011;11069;48.988;8.450;2023-05-10T00:13:09;1.85;;;1.45;;
21814;SDS011;11069;48.988;8.450;2023-05-10T00:15:34;1.70;;;1.60;;
21814;SDS011;11069;48.988;8.450;2023-05-10T00:18:00;1.95;;;1.80;;
21814;SDS011;11069;48.988;8.450;2023-05-10T00:20:26;1.70;;;1.60;;
21814;SDS011;11069;48.988;8.450;2023-05-10T00:22:52;2.85;;;1.73;;
21814;SDS011;11069;48.988;8.450;2023-05-10T00:25:18;1.88;;;1.70;;
21814;SDS011;11069;48.988;8.450;2023-05-10T00:27:46;2.08;;;1.67;;
21814;SDS011;11069;48.988;8.450;2023-05-10T00:30:12;1.70;;;1.60;;
21814;SDS011;11069;48.988;8.450;2023-05-10T00:32:38;2.05;;;1.85;;
21814;SDS011;11069;48.988;8.450;2023-05-10T00:35:04;2.85;;;1.70;;
21814;SDS011;11069;48.988;8.450;2023-05-10T00:37:30;4.50;;;2.20;;
21814;SDS011;11069;48.988;8.450;2023-05-10T00:39:56;1.80;;;1.70;;
21814;SDS011;11069;48.988;8.450;2023-05-10T00:42:22;2.78;;;1.80;;
21814;SDS011;11069;48.988;8.450;2023-05-10T00:44:48;2.28;;;2.08;;
21814;SDS011;11069;48.988;8.450;2023-05-10T00:47:15;2.25;;;1.92;;
21814;SDS011;11069;48.988;8.450;2023-05-10T00:49:41;2.10;;;1.90;;
21814;SDS011;11069;48.988;8.450;2023-05-10T00:52:07;1.88;;;1.77;;
21814;SDS011;11069;48.988;8.450;2023-05-10T00:54:33;2.00;;;1.90;;
21814;SDS011;11069;48.988;8.450;2023-05-10T00:56:59;2.83;;;2.15;;
21814;SDS011;11069;48.988;8.450;2023-05-10T00:59:26;2.58;;;2.38;;
21814;SDS011;11069;48.988;8.450;2023-05-10T01:01:52;3.10;;;2.45;;
21814;SDS011;11069;48.988;8.450;2023-05-10T01:04:18;2.60;;;2.40;;
21814;SDS011;11069;48.988;8.450;2023-05-10T01:06:50;2.85;;;2.55;;
21814;SDS011;11069;48.988;8.450;2023-05-10T01:15:16;3.05;;;2.75;;
21814;SDS011;11069;48.988;8.450;2023-05-10T01:17:43;3.35;;;2.97;;
21814;SDS011;11069;48.988;8.450;2023-05-10T01:20:10;3.88;;;3.42;;
21814;SDS011;11069;48.988;8.450;2023-05-10T01:22:44;4.03;;;3.22;;
21814;SDS011;11069;48.988;8.450;2023-05-10T01:38:29;3.90;;;3.60;;
21814;SDS011;11069;48.988;8.450;2023-05-10T01:41:05;4.05;;;3.30;;
21814;SDS011;11069;48.988;8.450;2023-05-10T01:43:39;4.22;;;3.83;;
21814;SDS011;11069;48.988;8.450;2023-05-10T01:46:09;5.18;;;4.00;;
21814;SDS011;11069;48.988;8.450;2023-05-10T01:48:40;4.72;;;3.90;;
21814;SDS011;11069;48.988;8.450;2023-05-10T01:51:11;4.78;;;3.80;;
21814;SDS011;11069;48.988;8.450;2023-05-10T01:53:37;4.30;;;3.90;;
21814;SDS011;11069;48.988;8.450;2023-05-10T01:56:04;4.10;;;3.80;;
21814;SDS011;11069;48.988;8.450;2023-05-10T01:58:31;5.63;;;4.10;;
21814;SDS011;11069;48.988;8.450;2023-05-10T02:00:59;4.10;;;3.70;;
21814;SDS011;11069;48.988;8.450;2023-05-10T02:03:25;6.45;;;4.20;;
21814;SDS011;11069;48.988;8.450;2023-05-10T02:05:53;5.22;;;4.65;;
21814;SDS011;11069;48.988;8.450;2023-05-10T02:08:19;4.97;;;4.10;;
21814;SDS011;11069;48.988;8.450;2023-05-10T02:10:46;7.38;;;4.78;;
21814;SDS011;11069;48.988;8.450;2023-05-10T02:13:13;6.22;;;4.95;;
21814;SDS011;11069;48.988;8.450;2023-05-10T02:15:40;5.00;;;4.55;;
21814;SDS011;11069;48.988;8.450;2023-05-10T02:18:07;5.38;;;4.88;;
21814;SDS011;11069;48.988;8.450;2023-05-10T02:20:33;6.70;;;4.75;;
21814;SDS011;11069;48.988;8.450;2023-05-10T02:23:00;5.55;;;4.93;;
21814;SDS011;11069;48.988;8.450;2023-05-10T02:25:27;5.88;;;4.88;;
21814;SDS011;11069;48.988;8.450;2023-05-10T02:27:55;5.90;;;5.38;;
21814;SDS011;11069;48.988;8.450;2023-05-10T02:30:21;6.72;;;5.53;;
21814;SDS011;11069;48.988;8.450;2023-05-10T02:32:48;7.00;;;5.38;;
21814;SDS011;11069;48.988;8.450;2023-05-10T02:35:14;5.57;;;5.07;;
21814;SDS011;11069;48.988;8.450;2023-05-10T02:37:41;6.35;;;5.75;;
21814;SDS011;11069;48.988;8.450;2023-05-10T02:40:08;6.03;;;5.43;;
21814;SDS011;11069;48.988;8.450;2023-05-10T02:42:36;9.95;;;5.78;;
21814;SDS011;11069;48.988;8.450;2023-05-10T02:45:04;6.85;;;5.90;;
21814;SDS011;11069;48.988;8.450;2023-05-10T02:47:31;6.68;;;5.97;;
21814;SDS011;11069;48.988;8.450;2023-05-10T02:49:57;10.18;;;6.32;;
21814;SDS011;11069;48.988;8.450;2023-05-10T02:52:25;7.63;;;6.28;;
21814;SDS011;11069;48.988;8.450;2023-05-10T02:54:54;7.30;;;6.50;;
21814;SDS011;11069;48.988;8.450;2023-05-10T02:57:22;7.20;;;6.50;;
21814;SDS011;11069;48.988;8.450;2023-05-10T02:59:50;8.25;;;5.35;;
21814;SDS011;11069;48.988;8.450;2023-05-10T03:02:16;6.18;;;5.57;;
21814;SDS011;11069;48.988;8.450;2023-05-10T03:04:42;6.75;;;6.07;;
21814;SDS011;11069;48.988;8.450;2023-05-10T03:07:08;6.35;;;5.75;;
21814;SDS011;11069;48.988;8.450;2023-05-10T03:09:34;6.28;;;5.68;;
21814;SDS011;11069;48.988;8.450;2023-05-10T03:17:18;6.63;;;5.82;;
21814;SDS011;11069;48.988;8.450;2023-05-10T03:19:51;7.65;;;5.90;;
21814;SDS011;11069;48.988;8.450;2023-05-10T03:22:25;6.75;;;5.93;;
21814;SDS011;11069;48.988;8.450;2023-05-10T03:24:55;6.88;;;5.63;;
21814;SDS011;11069;48.988;8.450;2023-05-10T03:27:22;7.13;;;5.88;;
21814;SDS011;11069;48.988;8.450;2023-05-10T03:29:49;6.68;;;6.07;;
21814;SDS011;11069;48.988;8.450;2023-05-10T03:32:16;6.72;;;6.03;;
21814;SDS011;11069;48.988;8.450;2023-05-10T03:34:42;7.95;;;6.35;;
21814;SDS011;11069;48.988;8.450;2023-05-10T03:37:08;6.78;;;5.72;;
21814;SDS011;11069;48.988;8.450;2023-05-10T03:39:34;6.55;;;5.90;;
21814;SDS011;11069;48.988;8.450;2023-05-10T03:42:00;6.07;;;5.45;;
21814;SDS011;11069;48.988;8.450;2023-05-10T03:44:26;6.57;;;5.88;;
21814;SDS011;11069;48.988;8.450;2023-05-10T03:46:52;6.15;;;5.60;;
21814;SDS011;11069;48.988;8.450;2023-05-10T03:49:18;6.90;;;6.10;;
21814;SDS011;11069;48.988;8.450;2023-05-10T03:51:44;7.15;;;5.63;;
21814;SDS011;11069;48.988;8.450;2023-05-10T03:54:10;6.75;;;6.05;;
21814;SDS011;11069;48.988;8.450;2023-05-10T03:56:36;7.07;;;6.35;;
21814;SDS011;11069;48.988;8.450;2023-05-10T03:59:02;7.40;;;6.25;;
21814;SDS011;11069;48.988;8.450;2023-05-10T04:01:32;9.25;;;5.90;;
21814;SDS011;11069;48.988;8.450;2023-05-10T04:03:58;6.72;;;6.03;;
21814;SDS011;11069;48.988;8.450;2023-05-10T04:06:24;6.57;;;5.72;;
21814;SDS011;11069;48.988;8.450;2023-05-10T04:08:50;6.28;;;5.68;;
21814;SDS011;11069;48.988;8.450;2023-05-10T04:11:16;6.40;;;5.30;;
21814;SDS011;11069;48.988;8.450;2023-05-10T04:13:42;5.97;;;5.45;;
21814;SDS011;11069;48.988;8.450;2023-05-10T04:16:08;7.63;;;5.53;;
21814;SDS011;11069;48.988;8.450;2023-05-10T04:18:34;5.43;;;4.93;;
21814;SDS011;11069;48.988;8.450;2023-05-10T04:21:00;6.13;;;5.22;;
21814;SDS011;11069;48.988;8.450;2023-05-10T04:23:26;5.78;;;4.90;;
21814;SDS011;11069;48.988;8.450;2023-05-10T04:25:52;5.65;;;4.95;;
21814;SDS011;11069;48.988;8.450;2023-05-10T04:28:24;5.97;;;4.90;;
21814;SDS011;11069;48.988;8.450;2023-05-10T04:30:50;6.22;;;5.63;;
21814;SDS011;11069;48.988;8.450;2023-05-10T04:33:16;5.18;;;4.68;;
21814;SDS011;11069;48.988;8.450;2023-05-10T04:35:42;5.60;;;5.05;;
21814;SDS011;11069;48.988;8.450;2023-05-10T04:38:09;6.00;;;5.40;;
21814;SDS011;11069;48.988;8.450;2023-05-10T04:40:35;8.18;;;5.30;;
21814;SDS011;11069;48.988;8.450;2023-05-10T04:43:01;5.80;;;5.30;;
21814;SDS011;11069;48.988;8.450;2023-05-10T04:45:27;6.03;;;5.43;;
21814;SDS011;11069;48.988;8.450;2023-05-10T04:47:53;5.47;;;4.97;;
21814;SDS011;11069;48.988;8.450;2023-05-10T04:50:19;5.70;;;5.20;;
21814;SDS011;11069;48.988;8.450;2023-05-10T04:52:45;6.05;;;5.13;;
21814;SDS011;11069;48.988;8.450;2023-05-10T04:55:11;5.88;;;5.28;;
21814;SDS011;11069;48.988;8.450;2023-05-10T04:57:37;6.10;;;5.20;;
21814;SDS011;11069;48.988;8.450;2023-05-10T05:00:03;5.68;;;5.18;;
21814;SDS011;11069;48.988;8.450;2023-05-10T05:02:29;6.50;;;5.30;;
21814;SDS011;11069;48.988;8.450;2023-05-10T05:04:56;7.28;;;5.60;;
21814;SDS011;11069;48.988;8.450;2023-05-10T05:07:22;7.40;;;5.25;;
21814;SDS011;11069;48.988;8.450;2023-05-10T05:09:48;6.55;;;5.88;;
21814;SDS011;11069;48.988;8.450;2023-05-10T05:12:14;6.22;;;5.63;;
21814;SDS011;11069;48.988;8.450;2023-05-10T05:14:40;7.30;;;6.20;;
21814;SDS011;11069;48.988;8.450;2023-05-10T05:17:06;7.05;;;6.00;;
21814;SDS011;11069;48.988;8.450;2023-05-10T05:19:33;9.35;;;5.97;;
21814;SDS011;11069;48.988;8.450;2023-05-10T05:21:59;6.82;;;5.97;;
21814;SDS011;11069;48.988;8.450;2023-05-10T05:24:25;8.13;;;6.22;;
21814;SDS011;11069;48.988;8.450;2023-05-10T05:26:51;6.55;;;5.93;;
21814;SDS011;11069;48.988;8.450;2023-05-10T05:29:17;6.47;;;5.82;;
21814;SDS011;11069;48.988;8.450;2023-05-10T05:31:43;6.43;;;5.82;;
21814;SDS011;11069;48.988;8.450;2023-05-10T05:34:09;6.60;;;5.78;;
21814;SDS011;11069;48.988;8.450;2023-05-10T05:36:38;6.20;;;5.60;;
21814;SDS011;11069;48.988;8.450;2023-05-10T05:39:04;6.07;;;5.47;;
21814;SDS011;11069;48.988;8.450;2023-05-10T05:41:30;6.75;;;5.55;;
21814;SDS011;11069;48.988;8.450;2023-05-10T05:43:56;6.72;;;5.63;;
21814;SDS011;11069;48.988;8.450;2023-05-10T05:46:22;5.80;;;5.18;;
21814;SDS011;11069;48.988;8.450;2023-05-10T05:48:48;7.70;;;5.68;;
21814;SDS011;11069;48.988;8.450;2023-05-10T05:51:14;8.25;;;5.38;;
21814;SDS011;11069;48.988;8.450;2023-05-10T05:53:40;5.45;;;4.95;;
21814;SDS011;11069;48.988;8.450;2023-05-10T05:56:06;6.80;;;4.90;;
21814;SDS011;11069;48.988;8.450;2023-05-10T05:58:33;4.97;;;4.47;;
21814;SDS011;11069;48.988;8.450;2023-05-10T06:00:58;4.82;;;4.22;;
21814;SDS011;11069;48.988;8.450;2023-05-10T06:03:24;4.40;;;3.58;;
21814;SDS011;11069;48.988;8.450;2023-05-10T06:05:50;4.88;;;4.30;;
21814;SDS011;11069;48.988;8.450;2023-05-10T06:08:16;3.80;;;3.40;;
21814;SDS011;11069;48.988;8.450;2023-05-10T06:10:42;4.32;;;3.45;;
21814;SDS011;11069;48.988;8.450;2023-05-10T06:13:09;4.07;;;3.55;;
21814;SDS011;11069;48.988;8.450;2023-05-10T06:15:35;3.72;;;3.28;;
21814;SDS011;11069;48.988;8.450;2023-05-10T06:18:01;5.65;;;3.55;;
21814;SDS011;11069;48.988;8.450;2023-05-10T06:20:27;7.60;;;3.95;;
21814;SDS011;11069;48.988;8.450;2023-05-10T06:22:53;5.97;;;3.72;;
21814;SDS011;11069;48.988;8.450;2023-05-10T06:25:19;4.45;;;3.85;;
21814;SDS011;11069;48.988;8.450;2023-05-10T06:27:45;3.95;;;3.60;;
21814;SDS011;11069;48.988;8.450;2023-05-10T06:30:11;4.70;;;3.80;;
21814;SDS011;11069;48.988;8.450;2023-05-10T06:32:40;5.05;;;3.83;;
21814;SDS011;11069;48.988;8.450;2023-05-10T06:35:06;4.88;;;4.47;;
21814;SDS011;11069;48.988;8.450;2023-05-10T06:37:32;5.90;;;4.03;;
21814;SDS011;11069;48.988;8.450;2023-05-10T06:39:59;4.22;;;3.88;;
21814;SDS011;11069;48.988;8.450;2023-05-10T06:42:25;4.15;;;3.75;;
21814;SDS011;11069;48.988;8.450;2023-05-10T06:44:52;8.20;;;4.20;;
21814;SDS011;11069;48.988;8.450;2023-05-10T06:47:18;4.20;;;3.50;;
21814;SDS011;11069;48.988;8.450;2023-05-10T06:49:44;3.40;;;3.10;;
21814;SDS011;11069;48.988;8.450;2023-05-10T06:52:10;4.45;;;3.25;;
21814;SDS011;11069;48.988;8.450;2023-05-10T06:54:36;3.75;;;2.80;;
21814;SDS011;11069;48.988;8.450;2023-05-10T06:57:02;3.25;;;2.60;;
21814;SDS011;11069;48.988;8.450;2023-05-10T06:59:28;3.80;;;2.55;;
21814;SDS011;11069;48.988;8.450;2023-05-10T07:01:54;3.13;;;2.42;;
21814;SDS011;11069;48.988;8.450;2023-05-10T07:04:20;3.50;;;2.33;;
21814;SDS011;11069;48.988;8.450;2023-05-10T07:06:46;3.03;;;2.33;;
21814;SDS011;11069;48.988;8.450;2023-05-10T07:09:12;3.28;;;2.35;;
21814;SDS011;11069;48.988;8.450;2023-05-10T07:11:38;2.78;;;2.00;;
21814;SDS011;11069;48.988;8.450;2023-05-10T07:14:04;2.80;;;2.50;;
21814;SDS011;11069;48.988;8.450;2023-05-10T07:16:30;3.28;;;2.08;;
21814;SDS011;11069;48.988;8.450;2023-05-10T07:18:56;3.63;;;2.13;;
21814;SDS011;11069;48.988;8.450;2023-05-10T07:21:22;7.00;;;2.05;;
21814;SDS011;11069;48.988;8.450;2023-05-10T07:23:53;2.00;;;1.90;;
21814;SDS011;11069;48.988;8.450;2023-05-10T07:26:19;2.42;;;1.75;;
21814;SDS011;11069;48.988;8.450;2023-05-10T07:28:45;2.03;;;1.83;;
21814;SDS011;11069;48.988;8.450;2023-05-10T07:31:12;2.63;;;1.50;;
21814;SDS011;11069;48.988;8.450;2023-05-10T07:33:38;1.52;;;1.30;;
21814;SDS011;11069;48.988;8.450;2023-05-10T07:36:04;2.70;;;1.88;;
21814;SDS011;11069;48.988;8.450;2023-05-10T07:38:30;1.52;;;1.42;;
21814;SDS011;11069;48.988;8.450;2023-05-10T07:40:56;3.25;;;1.60;;
21814;SDS011;11069;48.988;8.450;2023-05-10T07:43:21;1.63;;;1.52;;
21814;SDS011;11069;48.988;8.450;2023-05-10T07:45:47;2.97;;;1.55;;
21814;SDS011;11069;48.988;8.450;2023-05-10T07:48:13;1.40;;;1.30;;
21814;SDS011;11069;48.988;8.450;2023-05-10T07:50:39;2.35;;;1.50;;
21814;SDS011;11069;48.988;8.450;2023-05-10T07:53:05;2.20;;;1.42;;
21814;SDS011;11069;48.988;8.450;2023-05-10T07:55:32;1.40;;;1.25;;
21814;SDS011;11069;48.988;8.450;2023-05-10T07:57:58;1.73;;;1.10;;
21814;SDS011;11069;48.988;8.450;2023-05-10T08:00:26;2.00;;;1.25;;
21814;SDS011;11069;48.988;8.450;2023-05-10T08:02:52;3.20;;;1.17;;
21814;SDS011;11069;48.988;8.450;2023-05-10T08:05:18;1.58;;;1.35;;
21814;SDS011;11069;48.988;8.450;2023-05-10T08:07:44;0.90;;;0.88;;
21814;SDS011;11069;48.988;8.450;2023-05-10T08:10:10;0.90;;;0.90;;
21814;SDS011;11069;48.988;8.450;2023-05-10T08:12:36;2.35;;;1.20;;
21814;SDS011;11069;48.988;8.450;2023-05-10T08:15:02;1.50;;;1.10;;
21814;SDS011;11069;48.988;8.450;2023-05-10T08:17:29;3.50;;;1.20;;
21814;SDS011;11069;48.988;8.450;2023-05-10T08:19:55;2.80;;;1.10;;
21814;SDS011;11069;48.988;8.450;2023-05-10T08:22:21;3.20;;;1.17;;
21814;SDS011;11069;48.988;8.450;2023-05-10T08:24:47;0.80;;;0.80;;
21814;SDS011;11069;48.988;8.450;2023-05-10T08:27:13;1.10;;;0.90;;
21814;SDS011;11069;48.988;8.450;2023-05-10T08:29:39;1.90;;;1.00;;
21814;SDS011;11069;48.988;8.450;2023-05-10T08:32:05;1.70;;;0.88;;
21814;SDS011;11069;48.988;8.450;2023-05-10T08:34:31;2.45;;;1.10;;
21814;SDS011;11069;48.988;8.450;2023-05-10T08:36:57;0.95;;;0.95;;
21814;SDS011;11069;48.988;8.450;2023-05-10T08:39:23;1.10;;;1.00;;
21814;SDS011;11069;48.988;8.450;2023-05-10T08:41:48;1.02;;;0.80;;
21814;SDS011;11069;48.988;8.450;2023-05-10T08:44:16;3.65;;;1.50;;
21814;SDS011;11069;48.988;8.450;2023-05-10T08:46:43;1.10;;;1.00;;
21814;SDS011;11069;48.988;8.450;2023-05-10T08:49:12;2.65;;;1.02;;
21814;SDS011;11069;48.988;8.450;2023-05-10T08:51:40;0.90;;;0.73;;
21814;SDS011;11069;48.988;8.450;2023-05-10T08:54:06;0.95;;;0.77;;
21814;SDS011;11069;48.988;8.450;2023-05-10T08:56:32;0.80;;;0.80;;
21814;SDS011;11069;48.988;8.450;2023-05-10T08:58:58;0.93;;;0.60;;
21814;SDS011;11069;48.988;8.450;2023-05-10T09:01:24;0.90;;;0.80;;
21814;SDS011;11069;48.988;8.450;2023-05-10T09:03:51;1.13;;;0.82;;
21814;SDS011;11069;48.988;8.450;2023-05-10T09:06:17;1.20;;;0.88;;
21814;SDS011;11069;48.988;8.450;2023-05-10T09:08:43;1.05;;;0.80;;
21814;SDS011;11069;48.988;8.450;2023-05-10T09:11:09;0.80;;;0.70;;
21814;SDS011;11069;48.988;8.450;2023-05-10T09:13:36;1.40;;;1.00;;
21814;SDS011;11069;48.988;8.450;2023-05-10T09:16:02;1.05;;;0.80;;
21814;SDS011;11069;48.988;8.450;2023-05-10T09:18:28;1.95;;;0.90;;
21814;SDS011;11069;48.988;8.450;2023-05-10T09:20:54;1.05;;;0.95;;
21814;SDS011;11069;48.988;8.450;2023-05-10T09:23:20;2.13;;;0.80;;
21814;SDS011;11069;48.988;8.450;2023-05-10T09:25:46;4.60;;;0.80;;
21814;SDS011;11069;48.988;8.450;2023-05-10T09:28:12;3.50;;;0.90;;
21814;SDS011;11069;48.988;8.450;2023-05-10T09:30:38;1.45;;;0.98;;
21814;SDS011;11069;48.988;8.450;2023-05-10T09:33:05;1.67;;;1.00;;
21814;SDS011;11069;48.988;8.450;2023-05-10T09:35:31;1.42;;;0.80;;
21814;SDS011;11069;48.988;8.450;2023-05-10T09:38:00;1.15;;;0.73;;
21814;SDS011;11069;48.988;8.450;2023-05-10T09:40:27;1.52;;;0.80;;
21814;SDS011;11069;48.988;8.450;2023-05-10T09:42:57;1.23;;;1.10;;
21814;SDS011;11069;48.988;8.450;2023-05-10T09:45:24;0.60;;;0.60;;
21814;SDS011;11069;48.988;8.450;2023-05-10T09:47:50;1.85;;;0.90;;
21814;SDS011;11069;48.988;8.450;2023-05-10T09:50:16;2.30;;;1.13;;
21814;SDS011;11069;48.988;8.450;2023-05-10T09:52:50;1.02;;;1.02;;
21814;SDS011;11069;48.988;8.450;2023-05-10T09:55:17;2.17;;;1.23;;
21814;SDS011;11069;48.988;8.450;2023-05-10T09:57:44;2.13;;;1.40;;
21814;SDS011;11069;48.988;8.450;2023-05-10T10:00:11;1.17;;;1.08;;
21814;SDS011;11069;48.988;8.450;2023-05-10T10:02:42;1.60;;;1.10;;
21814;SDS011;11069;48.988;8.450;2023-05-10T10:05:08;1.90;;;1.33;;
21814;SDS011;11069;48.988;8.450;2023-05-10T10:07:34;1.30;;;1.15;;
21814;SDS011;11069;48.988;8.450;2023-05-10T10:10:00;1.92;;;1.10;;
21814;SDS011;11069;48.988;8.450;2023-05-10T10:12:27;1.10;;;1.00;;
21814;SDS011;11069;48.988;8.450;2023-05-10T10:14:53;2.15;;;1.05;;
21814;SDS011;11069;48.988;8.450;2023-05-10T10:17:19;2.10;;;1.23;;
21814;SDS011;11069;48.988;8.450;2023-05-10T10:19:45;2.15;;;1.15;;
21814;SDS011;11069;48.988;8.450;2023-05-10T10:22:12;5.35;;;1.30;;
21814;SDS011;11069;48.988;8.450;2023-05-10T10:24:38;1.52;;;1.10;;
21814;SDS011;11069;48.988;8.450;2023-05-10T10:27:28;3.78;;;1.60;;
21814;SDS011;11069;48.988;8.450;2023-05-10T10:32:37;1.55;;;1.20;;
21814;SDS011;11069;48.988;8.450;2023-05-10T10:35:03;2.67;;;1.45;;
21814;SDS011;11069;48.988;8.450;2023-05-10T10:37:45;1.60;;;1.20;;
21814;SDS011;11069;48.988;8.450;2023-05-10T10:40:24;2.28;;;1.38;;
21814;SDS011;11069;48.988;8.450;2023-05-10T10:42:51;2.22;;;1.23;;
21814;SDS011;11069;48.988;8.450;2023-05-10T10:45:17;1.73;;;1.40;;
21814;SDS011;11069;48.988;8.450;2023-05-10T10:47:43;2.45;;;1.60;;
21814;SDS011;11069;48.988;8.450;2023-05-10T10:50:10;3.05;;;1.60;;
21814;SDS011;11069;48.988;8.450;2023-05-10T10:52:41;1.73;;;1.50;;
21814;SDS011;11069;48.988;8.450;2023-05-10T10:57:46;2.75;;;1.83;;
21814;SDS011;11069;48.988;8.450;2023-05-10T11:00:20;3.30;;;1.75;;
21814;SDS011;11069;48.988;8.450;2023-05-10T11:02:48;2.28;;;1.80;;
21814;SDS011;11069;48.988;8.450;2023-05-10T11:05:33;2.38;;;1.73;;
21814;SDS011;11069;48.988;8.450;2023-05-10T11:08:10;4.28;;;1.50;;
21814;SDS011;11069;48.988;8.450;2023-05-10T11:10:36;1.80;;;1.50;;
21814;SDS011;11069;48.988;8.450;2023-05-10T11:13:03;1.73;;;1.40;;
21814;SDS011;11069;48.988;8.450;2023-05-10T11:15:31;2.67;;;1.30;;
21814;SDS011;11069;48.988;8.450;2023-05-10T11:17:57;2.05;;;1.30;;
21814;SDS011;11069;48.988;8.450;2023-05-10T11:20:23;2.80;;;1.40;;
21814;SDS011;11069;48.988;8.450;2023-05-10T11:22:58;2.70;;;1.50;;
21814;SDS011;11069;48.988;8.450;2023-05-10T11:25:27;1.48;;;1.30;;
21814;SDS011;11069;48.988;8.450;2023-05-10T11:27:53;2.95;;;1.17;;
21814;SDS011;11069;48.988;8.450;2023-05-10T11:30:19;1.42;;;1.30;;
21814;SDS011;11069;48.988;8.450;2023-05-10T11:32:45;1.95;;;1.42;;
21814;SDS011;11069;48.988;8.450;2023-05-10T11:35:11;2.20;;;1.40;;
21814;SDS011;11069;48.988;8.450;2023-05-10T11:37:38;4.22;;;1.63;;
21814;SDS011;11069;48.988;8.450;2023-05-10T11:40:08;2.10;;;1.20;;
21814;SDS011;11069;48.988;8.450;2023-05-10T11:42:36;3.25;;;1.67;;
21814;SDS011;11069;48.988;8.450;2023-05-10T11:45:03;1.75;;;1.40;;
21814;SDS011;11069;48.988;8.450;2023-05-10T11:47:29;3.58;;;1.48;;
21814;SDS011;11069;48.988;8.450;2023-05-10T11:49:55;3.35;;;1.10;;
21814;SDS011;11069;48.988;8.450;2023-05-10T11:52:21;2.13;;;1.10;;
21814;SDS011;11069;48.988;8.450;2023-05-10T11:54:53;1.05;;;1.00;;
21814;SDS011;11069;48.988;8.450;2023-05-10T11:57:19;1.70;;;1.15;;
21814;SDS011;11069;48.988;8.450;2023-05-10T11:59:52;2.25;;;1.10;;
21814;SDS011;11069;48.988;8.450;2023-05-10T12:02:19;2.22;;;1.33;;
21814;SDS011;11069;48.988;8.450;2023-05-10T12:04:46;1.85;;;1.00;;
21814;SDS011;11069;48.988;8.450;2023-05-10T12:07:12;3.83;;;1.00;;
21814;SDS011;11069;48.988;8.450;2023-05-10T12:09:42;1.33;;;0.80;;
21814;SDS011;11069;48.988;8.450;2023-05-10T12:12:08;2.85;;;0.70;;
21814;SDS011;11069;48.988;8.450;2023-05-10T12:14:34;1.50;;;0.60;;
21814;SDS011;11069;48.988;8.450;2023-05-10T12:17:01;3.17;;;0.90;;
21814;SDS011;11069;48.988;8.450;2023-05-10T12:19:27;1.08;;;0.70;;
21814;SDS011;11069;48.988;8.450;2023-05-10T12:21:53;1.05;;;0.80;;
21814;SDS011;11069;48.988;8.450;2023-05-10T12:24:19;1.20;;;0.80;;
21814;SDS011;11069;48.988;8.450;2023-05-10T12:26:46;1.42;;;0.60;;
21814;SDS011;11069;48.988;8.450;2023-05-10T12:29:17;1.13;;;0.80;;
21814;SDS011;11069;48.988;8.450;2023-05-10T12:31:50;2.35;;;0.90;;
21814;SDS011;11069;48.988;8.450;2023-05-10T12:37:11;2.85;;;1.20;;
21814;SDS011;11069;48.988;8.450;2023-05-10T12:39:41;2.35;;;0.82;;
21814;SDS011;11069;48.988;8.450;2023-05-10T12:42:08;1.10;;;1.00;;
21814;SDS011;11069;48.988;8.450;2023-05-10T12:44:34;0.88;;;0.88;;
21814;SDS011;11069;48.988;8.450;2023-05-10T12:47:00;1.48;;;0.90;;
21814;SDS011;11069;48.988;8.450;2023-05-10T12:49:26;1.20;;;0.93;;
21814;SDS011;11069;48.988;8.450;2023-05-10T12:51:52;0.82;;;0.80;;
21814;SDS011;11069;48.988;8.450;2023-05-10T12:54:18;2.13;;;0.85;;
21814;SDS011;11069;48.988;8.450;2023-05-10T12:56:44;1.90;;;0.98;;
21814;SDS011;11069;48.988;8.450;2023-05-10T12:59:10;1.10;;;0.95;;
21814;SDS011;11069;48.988;8.450;2023-05-10T13:01:36;1.20;;;0.90;;
21814;SDS011;11069;48.988;8.450;2023-05-10T13:04:02;6.25;;;1.02;;
21814;SDS011;11069;48.988;8.450;2023-05-10T13:06:28;2.00;;;0.77;;
21814;SDS011;11069;48.988;8.450;2023-05-10T13:08:54;3.22;;;1.00;;
21814;SDS011;11069;48.988;8.450;2023-05-10T13:11:20;1.88;;;1.10;;
21814;SDS011;11069;48.988;8.450;2023-05-10T13:13:46;2.42;;;1.23;;
21814;SDS011;11069;48.988;8.450;2023-05-10T13:16:12;2.78;;;1.17;;
21814;SDS011;11069;48.988;8.450;2023-05-10T13:18:38;2.25;;;1.30;;
21814;SDS011;11069;48.988;8.450;2023-05-10T13:21:04;1.33;;;0.80;;
21814;SDS011;11069;48.988;8.450;2023-05-10T13:23:30;1.38;;;0.88;;
21814;SDS011;11069;48.988;8.450;2023-05-10T13:25:56;1.83;;;1.00;;
21814;SDS011;11069;48.988;8.450;2023-05-10T13:28:22;1.23;;;0.70;;
21814;SDS011;11069;48.988;8.450;2023-05-10T13:30:48;0.60;;;0.60;;
21814;SDS011;11069;48.988;8.450;2023-05-10T13:33:14;1.13;;;0.80;;
21814;SDS011;11069;48.988;8.450;2023-05-10T13:35:40;1.17;;;0.70;;
21814;SDS011;11069;48.988;8.450;2023-05-10T13:38:06;2.35;;;0.85;;
21814;SDS011;11069;48.988;8.450;2023-05-10T13:40:32;0.60;;;0.60;;
21814;SDS011;11069;48.988;8.450;2023-05-10T13:42:59;2.45;;;0.80;;
21814;SDS011;11069;48.988;8.450;2023-05-10T13:45:25;1.30;;;0.80;;
21814;SDS011;11069;48.988;8.450;2023-05-10T13:47:51;1.20;;;0.80;;
21814;SDS011;11069;48.988;8.450;2023-05-10T13:50:17;3.58;;;0.93;;
21814;SDS011;11069;48.988;8.450;2023-05-10T13:52:43;2.00;;;0.63;;
21814;SDS011;11069;48.988;8.450;2023-05-10T13:55:09;1.95;;;0.60;;
21814;SDS011;11069;48.988;8.450;2023-05-10T13:57:37;1.15;;;0.60;;
21814;SDS011;11069;48.988;8.450;2023-05-10T14:00:03;1.70;;;0.80;;
21814;SDS011;11069;48.988;8.450;2023-05-10T14:02:29;2.38;;;0.80;;
21814;SDS011;11069;48.988;8.450;2023-05-10T14:04:55;0.98;;;0.90;;
21814;SDS011;11069;48.988;8.450;2023-05-10T14:07:21;1.48;;;0.85;;
21814;SDS011;11069;48.988;8.450;2023-05-10T14:09:50;0.95;;;0.82;;
21814;SDS011;11069;48.988;8.450;2023-05-10T14:12:16;1.60;;;0.70;;
21814;SDS011;11069;48.988;8.450;2023-05-10T14:14:42;2.15;;;0.90;;
21814;SDS011;11069;48.988;8.450;2023-05-10T14:17:08;1.35;;;0.70;;
21814;SDS011;11069;48.988;8.450;2023-05-10T14:19:34;1.83;;;0.80;;
21814;SDS011;11069;48.988;8.450;2023-05-10T14:22:00;1.02;;;0.85;;
21814;SDS011;11069;48.988;8.450;2023-05-10T14:24:26;1.33;;;0.80;;
21814;SDS011;11069;48.988;8.450;2023-05-10T14:26:52;2.70;;;0.90;;
21814;SDS011;11069;48.988;8.450;2023-05-10T14:29:19;0.80;;;0.80;;
21814;SDS011;11069;48.988;8.450;2023-05-10T14:31:45;1.45;;;0.68;;
21814;SDS011;11069;48.988;8.450;2023-05-10T14:34:11;1.92;;;1.00;;
21814;SDS011;11069;48.988;8.450;2023-05-10T14:36:37;2.58;;;1.20;;
21814;SDS011;11069;48.988;8.450;2023-05-10T14:39:03;0.80;;;0.80;;
21814;SDS011;11069;48.988;8.450;2023-05-10T14:41:29;5.05;;;0.90;;
21814;SDS011;11069;48.988;8.450;2023-05-10T14:43:55;1.52;;;0.75;;
21814;SDS011;11069;48.988;8.450;2023-05-10T14:46:22;0.80;;;0.80;;
21814;SDS011;11069;48.988;8.450;2023-05-10T14:48:47;1.95;;;0.90;;
21814;SDS011;11069;48.988;8.450;2023-05-10T14:51:13;1.05;;;0.77;;
21814;SDS011;11069;48.988;8.450;2023-05-10T14:53:39;2.47;;;0.70;;
21814;SDS011;11069;48.988;8.450;2023-05-10T14:56:06;2.90;;;0.77;;
21814;SDS011;11069;48.988;8.450;2023-05-10T14:58:32;1.95;;;0.60;;
21814;SDS011;11069;48.988;8.450;2023-05-10T15:00:58;1.75;;;0.60;;
21814;SDS011;11069;48.988;8.450;2023-05-10T15:03:24;3.38;;;0.93;;
21814;SDS011;11069;48.988;8.450;2023-05-10T15:05:50;1.65;;;0.70;;
21814;SDS011;11069;48.988;8.450;2023-05-10T15:08:16;0.70;;;0.70;;
21814;SDS011;11069;48.988;8.450;2023-05-10T15:10:43;1.55;;;0.63;;
21814;SDS011;11069;48.988;8.450;2023-05-10T15:13:09;3.63;;;0.60;;
21814;SDS011;11069;48.988;8.450;2023-05-10T15:15:34;2.05;;;0.80;;
21814;SDS011;11069;48.988;8.450;2023-05-10T15:18:01;0.60;;;0.60;;